Santa Rita do Passa Quatro, Brazil
Current Conditions -  °F | °C
As of 11:00 AM on Friday 24 Oct 2014 (Local Time) from SBYS Reporting Station
Scattered Clouds Scattered Clouds  
Wind Chill: 82°   Ceiling: Unl
Heat Index: 83°   Visibility: 6mi
Dew Point: 63°   Wind: 12mph
Humidity: 51%   Direction: 30°NNE
Pressure: 30.06"   Gusts: NA
Location:  21.71°S, 47.48°W
Report Text: SBYS 241300Z 03010KT 9999 FEW035 SCT100 28/17 Q1018
Loading
Personal Weather Stations






























Interactive Weather Map
Tropical Storm Tracking
New forecast layout! Learn more

10-Day Weather Forecast

Advertisements
Track Severe Weather on mobile